<?xml version="1.0" encoding="UTF-8" standalone="no" ?>
<gpx xmlns="http://www.topografix.com/GPX/1/1" xmlns:xsi="http://www.w3.org/2001/XMLSchema-instance" xsi:schemaLocation="http://www.topografix.com/GPX/1/1 http://www.topografix.com/GPX/1/1/gpx.xsd" version="1.1" creator="VisuGPX - https://www.visugpx.com">
  <metadata>
    <name>2023-09-07 J3</name>
    <desc><![CDATA[LeBouchet-Pradelles 22.4km 07/09/23]]></desc>
  </metadata>
  <wpt lat="44.89096" lon="3.79512">
    <ele>1213.3</ele>
    <name><![CDATA[0001384]]></name>
    <type><![CDATA[Point de départ]]></type>
  </wpt>
  <wpt lat="44.80453" lon="3.83652">
    <ele>1101.6</ele>
    <name><![CDATA[0001385]]></name>
    <desc><![CDATA[<p><br /><h3>Nom: Segment: 1</h3><br />Heure de départ: 09/07/2023 08:08<br/>Heure d'arrivée: 09/07/2023 12:35<br/>Distance: 15,3km (04:27)<br/>Temps déplacement: 03:14<br/>Vitesse moyenne: 3,42 km/h<br/>Vitesse moyenne mouv.: 4,44 km/h<br/>Vitesse Max.: 7,45 km/h<br/>Altitude minimale: 979 m<br/>Altitude maximale: 1221 m<br/>Vitesse de montée: 134,8 m/h<br/>Vitesse de descente: -187,9 m/h<br/>Gain d'altitude: 251 m<br/>Perte d'altitude: -368 m<br/>Temps de montée: 01:52<br/>Temps de descente: 01:57<br/></p>]]></desc>
    <type><![CDATA[Point d'arrivée]]></type>
  </wpt>
  <wpt lat="44.80461" lon="3.83641">
    <ele>1101.3</ele>
    <name><![CDATA[0001386]]></name>
    <type><![CDATA[Point de départ]]></type>
  </wpt>
  <wpt lat="44.78023" lon="3.89271">
    <ele>1241.1</ele>
    <name><![CDATA[0001387]]></name>
    <desc><![CDATA[<p><br /><h3>Nom: Segment: 2</h3><br />Heure de départ: 09/07/2023 13:44<br/>Heure d'arrivée: 09/07/2023 16:24<br/>Distance: 7,2km (02:40)<br/>Temps déplacement: 01:45<br/>Vitesse moyenne: 2,68 km/h<br/>Vitesse moyenne mouv.: 3,99 km/h<br/>Vitesse Max.: 9,82 km/h<br/>Altitude minimale: 1104 m<br/>Altitude maximale: 1312 m<br/>Vitesse de montée: 150,4 m/h<br/>Vitesse de descente: -279,9 m/h<br/>Gain d'altitude: 309 m<br/>Perte d'altitude: -157 m<br/>Temps de montée: 02:03<br/>Temps de descente: 00:33<br/></p>]]></desc>
    <type><![CDATA[Point d'arrivée]]></type>
  </wpt>
  <wpt lat="45.0432" lon="3.88663">
    <ele>625.2</ele>
    <name><![CDATA[2 - StevensonJ3]]></name>
  </wpt>
  <wpt lat="45.0431" lon="3.88652">
    <ele>624.6</ele>
    <name><![CDATA[3 - StevensonJ3]]></name>
  </wpt>
  <wpt lat="44.7274" lon="3.855">
    <ele>917.6</ele>
    <name><![CDATA[4 - StevensonJ3]]></name>
  </wpt>
  <wpt lat="44.6492" lon="3.89027">
    <ele>1001.6</ele>
    <name><![CDATA[5 - StevensonJ3]]></name>
  </wpt>
  <wpt lat="44.3289" lon="3.59165">
    <ele>542</ele>
    <name><![CDATA[6 - StevensonJ3]]></name>
  </wpt>
  <trk>
    <name><![CDATA[1 - StevensonJ3-16229119]]></name>
    <extensions>
      <line xmlns="http://www.topografix.com/GPX/gpx_style/0/2">
        <color>00FF00</color>
        <width>4</width>
      </line>
    </extensions>
    <trkseg>
      <trkpt lat="44.89049" lon="3.79465">
        <ele>1215</ele>
        <time>2023-11-15T07:17:30Z</time>
      </trkpt>
      <trkpt lat="44.89056" lon="3.79437">
        <ele>1215</ele>
        <time>2023-11-15T07:17:58Z</time>
      </trkpt>
      <trkpt lat="44.89007" lon="3.79217">
        <ele>1217</ele>
        <time>2023-11-15T07:21:36Z</time>
      </trkpt>
      <trkpt lat="44.88984" lon="3.79132">
        <ele>1219</ele>
        <time>2023-11-15T07:23:02Z</time>
      </trkpt>
      <trkpt lat="44.88969" lon="3.79099">
        <ele>1219</ele>
        <time>2023-11-15T07:23:39Z</time>
      </trkpt>
      <trkpt lat="44.88933" lon="3.79074">
        <ele>1219</ele>
        <time>2023-11-15T07:24:33Z</time>
      </trkpt>
      <trkpt lat="44.88856" lon="3.79025">
        <ele>1217</ele>
        <time>2023-11-15T07:26:25Z</time>
      </trkpt>
      <trkpt lat="44.88833" lon="3.79006">
        <ele>1217</ele>
        <time>2023-11-15T07:27:01Z</time>
      </trkpt>
      <trkpt lat="44.88757" lon="3.79029">
        <ele>1217</ele>
        <time>2023-11-15T07:28:45Z</time>
      </trkpt>
      <trkpt lat="44.88623" lon="3.79045">
        <ele>1218</ele>
        <time>2023-11-15T07:31:44Z</time>
      </trkpt>
      <trkpt lat="44.88594" lon="3.79056">
        <ele>1218</ele>
        <time>2023-11-15T07:32:24Z</time>
      </trkpt>
      <trkpt lat="44.8856" lon="3.79059">
        <ele>1218</ele>
        <time>2023-11-15T07:33:10Z</time>
      </trkpt>
      <trkpt lat="44.88493" lon="3.79076">
        <ele>1218</ele>
        <time>2023-11-15T07:34:41Z</time>
      </trkpt>
      <trkpt lat="44.88432" lon="3.79094">
        <ele>1214</ele>
        <time>2023-11-15T07:36:04Z</time>
      </trkpt>
      <trkpt lat="44.88276" lon="3.79151">
        <ele>1212</ele>
        <time>2023-11-15T07:39:39Z</time>
      </trkpt>
      <trkpt lat="44.88176" lon="3.79191">
        <ele>1210</ele>
        <time>2023-11-15T07:41:57Z</time>
      </trkpt>
      <trkpt lat="44.88037" lon="3.79254">
        <ele>1205</ele>
        <time>2023-11-15T07:45:12Z</time>
      </trkpt>
      <trkpt lat="44.87962" lon="3.79302">
        <ele>1203</ele>
        <time>2023-11-15T07:47:02Z</time>
      </trkpt>
      <trkpt lat="44.87876" lon="3.79365">
        <ele>1197</ele>
        <time>2023-11-15T07:49:11Z</time>
      </trkpt>
      <trkpt lat="44.87841" lon="3.79393">
        <ele>1194</ele>
        <time>2023-11-15T07:50:05Z</time>
      </trkpt>
      <trkpt lat="44.87832" lon="3.79415">
        <ele>1193</ele>
        <time>2023-11-15T07:50:29Z</time>
      </trkpt>
      <trkpt lat="44.87817" lon="3.79443">
        <ele>1193</ele>
        <time>2023-11-15T07:51:02Z</time>
      </trkpt>
      <trkpt lat="44.87798" lon="3.79466">
        <ele>1193</ele>
        <time>2023-11-15T07:51:36Z</time>
      </trkpt>
      <trkpt lat="44.87653" lon="3.79606">
        <ele>1193</ele>
        <time>2023-11-15T07:55:30Z</time>
      </trkpt>
      <trkpt lat="44.8763" lon="3.79622">
        <ele>1193</ele>
        <time>2023-11-15T07:56:04Z</time>
      </trkpt>
      <trkpt lat="44.87576" lon="3.7965">
        <ele>1193</ele>
        <time>2023-11-15T07:57:21Z</time>
      </trkpt>
      <trkpt lat="44.87342" lon="3.79786">
        <ele>1192</ele>
        <time>2023-11-15T08:02:59Z</time>
      </trkpt>
      <trkpt lat="44.87284" lon="3.79811">
        <ele>1192</ele>
        <time>2023-11-15T08:04:20Z</time>
      </trkpt>
      <trkpt lat="44.87022" lon="3.80006">
        <ele>1178</ele>
        <time>2023-11-15T08:10:55Z</time>
      </trkpt>
      <trkpt lat="44.86988" lon="3.80026">
        <ele>1177</ele>
        <time>2023-11-15T08:11:44Z</time>
      </trkpt>
      <trkpt lat="44.86952" lon="3.80052">
        <ele>1175</ele>
        <time>2023-11-15T08:12:38Z</time>
      </trkpt>
      <trkpt lat="44.86925" lon="3.80067">
        <ele>1174</ele>
        <time>2023-11-15T08:13:17Z</time>
      </trkpt>
      <trkpt lat="44.86781" lon="3.80166">
        <ele>1169</ele>
        <time>2023-11-15T08:16:51Z</time>
      </trkpt>
      <trkpt lat="44.86735" lon="3.80195">
        <ele>1167</ele>
        <time>2023-11-15T08:17:58Z</time>
      </trkpt>
      <trkpt lat="44.86692" lon="3.80227">
        <ele>1167</ele>
        <time>2023-11-15T08:19:03Z</time>
      </trkpt>
      <trkpt lat="44.86632" lon="3.80263">
        <ele>1166</ele>
        <time>2023-11-15T08:20:30Z</time>
      </trkpt>
      <trkpt lat="44.86591" lon="3.80302">
        <ele>1164</ele>
        <time>2023-11-15T08:21:36Z</time>
      </trkpt>
      <trkpt lat="44.86544" lon="3.80352">
        <ele>1162</ele>
        <time>2023-11-15T08:22:54Z</time>
      </trkpt>
      <trkpt lat="44.86532" lon="3.80369">
        <ele>1162</ele>
        <time>2023-11-15T08:23:17Z</time>
      </trkpt>
      <trkpt lat="44.8652" lon="3.80378">
        <ele>1161</ele>
        <time>2023-11-15T08:23:35Z</time>
      </trkpt>
      <trkpt lat="44.86485" lon="3.80377">
        <ele>1161</ele>
        <time>2023-11-15T08:24:22Z</time>
      </trkpt>
      <trkpt lat="44.86449" lon="3.80438">
        <ele>1161</ele>
        <time>2023-11-15T08:25:37Z</time>
      </trkpt>
      <trkpt lat="44.86331" lon="3.80722">
        <ele>1156</ele>
        <time>2023-11-15T08:30:48Z</time>
      </trkpt>
      <trkpt lat="44.8631" lon="3.80755">
        <ele>1155</ele>
        <time>2023-11-15T08:31:30Z</time>
      </trkpt>
      <trkpt lat="44.86242" lon="3.80842">
        <ele>1152</ele>
        <time>2023-11-15T08:33:33Z</time>
      </trkpt>
      <trkpt lat="44.8622" lon="3.80883">
        <ele>1152</ele>
        <time>2023-11-15T08:34:22Z</time>
      </trkpt>
      <trkpt lat="44.86203" lon="3.80919">
        <ele>1152</ele>
        <time>2023-11-15T08:35:02Z</time>
      </trkpt>
      <trkpt lat="44.86192" lon="3.80947">
        <ele>1151</ele>
        <time>2023-11-15T08:35:33Z</time>
      </trkpt>
      <trkpt lat="44.86172" lon="3.80969">
        <ele>1151</ele>
        <time>2023-11-15T08:36:07Z</time>
      </trkpt>
      <trkpt lat="44.86142" lon="3.80986">
        <ele>1151</ele>
        <time>2023-11-15T08:36:50Z</time>
      </trkpt>
      <trkpt lat="44.86107" lon="3.80996">
        <ele>1151</ele>
        <time>2023-11-15T08:37:37Z</time>
      </trkpt>
      <trkpt lat="44.86075" lon="3.81015">
        <ele>1151</ele>
        <time>2023-11-15T08:38:24Z</time>
      </trkpt>
      <trkpt lat="44.8601" lon="3.81087">
        <ele>1151</ele>
        <time>2023-11-15T08:40:14Z</time>
      </trkpt>
      <trkpt lat="44.85994" lon="3.81121">
        <ele>1150</ele>
        <time>2023-11-15T08:40:53Z</time>
      </trkpt>
      <trkpt lat="44.85968" lon="3.81154">
        <ele>1150</ele>
        <time>2023-11-15T08:41:39Z</time>
      </trkpt>
      <trkpt lat="44.85869" lon="3.81199">
        <ele>1149</ele>
        <time>2023-11-15T08:43:58Z</time>
      </trkpt>
      <trkpt lat="44.85886" lon="3.81228">
        <ele>1148</ele>
        <time>2023-11-15T08:44:34Z</time>
      </trkpt>
      <trkpt lat="44.85908" lon="3.81279">
        <ele>1148</ele>
        <time>2023-11-15T08:45:30Z</time>
      </trkpt>
      <trkpt lat="44.85957" lon="3.81436">
        <ele>1147</ele>
        <time>2023-11-15T08:48:12Z</time>
      </trkpt>
      <trkpt lat="44.8598" lon="3.81497">
        <ele>1146</ele>
        <time>2023-11-15T08:49:18Z</time>
      </trkpt>
      <trkpt lat="44.86012" lon="3.81557">
        <ele>1145</ele>
        <time>2023-11-15T08:50:29Z</time>
      </trkpt>
      <trkpt lat="44.86048" lon="3.81599">
        <ele>1145</ele>
        <time>2023-11-15T08:51:31Z</time>
      </trkpt>
      <trkpt lat="44.86091" lon="3.81654">
        <ele>1148</ele>
        <time>2023-11-15T08:52:49Z</time>
      </trkpt>
      <trkpt lat="44.86121" lon="3.81689">
        <ele>1148</ele>
        <time>2023-11-15T08:53:40Z</time>
      </trkpt>
      <trkpt lat="44.86145" lon="3.81708">
        <ele>1148</ele>
        <time>2023-11-15T08:54:17Z</time>
      </trkpt>
      <trkpt lat="44.86107" lon="3.81764">
        <ele>1149</ele>
        <time>2023-11-15T08:55:31Z</time>
      </trkpt>
      <trkpt lat="44.86084" lon="3.81788">
        <ele>1148</ele>
        <time>2023-11-15T08:56:09Z</time>
      </trkpt>
      <trkpt lat="44.86043" lon="3.81819">
        <ele>1146</ele>
        <time>2023-11-15T08:57:11Z</time>
      </trkpt>
      <trkpt lat="44.85924" lon="3.81886">
        <ele>1145</ele>
        <time>2023-11-15T09:00:02Z</time>
      </trkpt>
      <trkpt lat="44.8579" lon="3.81992">
        <ele>1144</ele>
        <time>2023-11-15T09:03:27Z</time>
      </trkpt>
      <trkpt lat="44.85721" lon="3.82063">
        <ele>1143</ele>
        <time>2023-11-15T09:05:21Z</time>
      </trkpt>
      <trkpt lat="44.8554" lon="3.82297">
        <ele>1142</ele>
        <time>2023-11-15T09:10:48Z</time>
      </trkpt>
      <trkpt lat="44.85473" lon="3.82388">
        <ele>1140</ele>
        <time>2023-11-15T09:12:53Z</time>
      </trkpt>
      <trkpt lat="44.85436" lon="3.82426">
        <ele>1141</ele>
        <time>2023-11-15T09:13:54Z</time>
      </trkpt>
      <trkpt lat="44.85378" lon="3.82468">
        <ele>1141</ele>
        <time>2023-11-15T09:15:21Z</time>
      </trkpt>
      <trkpt lat="44.8532" lon="3.82493">
        <ele>1139</ele>
        <time>2023-11-15T09:16:42Z</time>
      </trkpt>
      <trkpt lat="44.85308" lon="3.825">
        <ele>1139</ele>
        <time>2023-11-15T09:16:59Z</time>
      </trkpt>
      <trkpt lat="44.85289" lon="3.8253">
        <ele>1138</ele>
        <time>2023-11-15T09:17:37Z</time>
      </trkpt>
      <trkpt lat="44.85273" lon="3.82539">
        <ele>1137</ele>
        <time>2023-11-15T09:18:00Z</time>
      </trkpt>
      <trkpt lat="44.85255" lon="3.82562">
        <ele>1137</ele>
        <time>2023-11-15T09:18:32Z</time>
      </trkpt>
      <trkpt lat="44.85243" lon="3.82589">
        <ele>1137</ele>
        <time>2023-11-15T09:19:02Z</time>
      </trkpt>
      <trkpt lat="44.85237" lon="3.82617">
        <ele>1136</ele>
        <time>2023-11-15T09:19:30Z</time>
      </trkpt>
      <trkpt lat="44.85238" lon="3.82652">
        <ele>1135</ele>
        <time>2023-11-15T09:20:03Z</time>
      </trkpt>
      <trkpt lat="44.8521" lon="3.82625">
        <ele>1135</ele>
        <time>2023-11-15T09:20:49Z</time>
      </trkpt>
      <trkpt lat="44.85183" lon="3.82604">
        <ele>1134</ele>
        <time>2023-11-15T09:21:30Z</time>
      </trkpt>
      <trkpt lat="44.85157" lon="3.82599">
        <ele>1133</ele>
        <time>2023-11-15T09:22:05Z</time>
      </trkpt>
      <trkpt lat="44.85105" lon="3.82593">
        <ele>1128</ele>
        <time>2023-11-15T09:23:14Z</time>
      </trkpt>
      <trkpt lat="44.85089" lon="3.82596">
        <ele>1126</ele>
        <time>2023-11-15T09:23:36Z</time>
      </trkpt>
      <trkpt lat="44.85016" lon="3.82633">
        <ele>1117</ele>
        <time>2023-11-15T09:25:19Z</time>
      </trkpt>
      <trkpt lat="44.84978" lon="3.82674">
        <ele>1113</ele>
        <time>2023-11-15T09:26:23Z</time>
      </trkpt>
      <trkpt lat="44.84956" lon="3.82686">
        <ele>1112</ele>
        <time>2023-11-15T09:26:55Z</time>
      </trkpt>
      <trkpt lat="44.84939" lon="3.82681">
        <ele>1111</ele>
        <time>2023-11-15T09:27:18Z</time>
      </trkpt>
      <trkpt lat="44.84924" lon="3.82671">
        <ele>1110</ele>
        <time>2023-11-15T09:27:40Z</time>
      </trkpt>
      <trkpt lat="44.84907" lon="3.82648">
        <ele>1111</ele>
        <time>2023-11-15T09:28:11Z</time>
      </trkpt>
      <trkpt lat="44.8488" lon="3.82686">
        <ele>1110</ele>
        <time>2023-11-15T09:29:02Z</time>
      </trkpt>
      <trkpt lat="44.84863" lon="3.82689">
        <ele>1110</ele>
        <time>2023-11-15T09:29:25Z</time>
      </trkpt>
      <trkpt lat="44.84839" lon="3.82689">
        <ele>1110</ele>
        <time>2023-11-15T09:29:57Z</time>
      </trkpt>
      <trkpt lat="44.84787" lon="3.82669">
        <ele>1109</ele>
        <time>2023-11-15T09:31:09Z</time>
      </trkpt>
      <trkpt lat="44.84682" lon="3.82648">
        <ele>1108</ele>
        <time>2023-11-15T09:33:31Z</time>
      </trkpt>
      <trkpt lat="44.84669" lon="3.82665">
        <ele>1106</ele>
        <time>2023-11-15T09:33:54Z</time>
      </trkpt>
      <trkpt lat="44.84655" lon="3.82679">
        <ele>1106</ele>
        <time>2023-11-15T09:34:17Z</time>
      </trkpt>
      <trkpt lat="44.84625" lon="3.82704">
        <ele>1106</ele>
        <time>2023-11-15T09:35:04Z</time>
      </trkpt>
      <trkpt lat="44.84618" lon="3.82719">
        <ele>1105</ele>
        <time>2023-11-15T09:35:21Z</time>
      </trkpt>
      <trkpt lat="44.84596" lon="3.82735">
        <ele>1104</ele>
        <time>2023-11-15T09:35:54Z</time>
      </trkpt>
      <trkpt lat="44.84594" lon="3.82783">
        <ele>1105</ele>
        <time>2023-11-15T09:36:39Z</time>
      </trkpt>
      <trkpt lat="44.84532" lon="3.82821">
        <ele>1102</ele>
        <time>2023-11-15T09:38:09Z</time>
      </trkpt>
      <trkpt lat="44.84483" lon="3.82871">
        <ele>1099</ele>
        <time>2023-11-15T09:39:30Z</time>
      </trkpt>
      <trkpt lat="44.84446" lon="3.82902">
        <ele>1098</ele>
        <time>2023-11-15T09:40:28Z</time>
      </trkpt>
      <trkpt lat="44.84417" lon="3.82929">
        <ele>1096</ele>
        <time>2023-11-15T09:41:14Z</time>
      </trkpt>
      <trkpt lat="44.84389" lon="3.82964">
        <ele>1096</ele>
        <time>2023-11-15T09:42:04Z</time>
      </trkpt>
      <trkpt lat="44.84376" lon="3.8299">
        <ele>1097</ele>
        <time>2023-11-15T09:42:34Z</time>
      </trkpt>
      <trkpt lat="44.84368" lon="3.82989">
        <ele>1097</ele>
        <time>2023-11-15T09:42:45Z</time>
      </trkpt>
      <trkpt lat="44.84314" lon="3.82991">
        <ele>1096</ele>
        <time>2023-11-15T09:43:57Z</time>
      </trkpt>
      <trkpt lat="44.84303" lon="3.82994">
        <ele>1097</ele>
        <time>2023-11-15T09:44:12Z</time>
      </trkpt>
      <trkpt lat="44.84297" lon="3.82982">
        <ele>1096</ele>
        <time>2023-11-15T09:44:26Z</time>
      </trkpt>
      <trkpt lat="44.84274" lon="3.82994">
        <ele>1098</ele>
        <time>2023-11-15T09:44:58Z</time>
      </trkpt>
      <trkpt lat="44.84257" lon="3.82993">
        <ele>1098</ele>
        <time>2023-11-15T09:45:21Z</time>
      </trkpt>
      <trkpt lat="44.84234" lon="3.82983">
        <ele>1097</ele>
        <time>2023-11-15T09:45:53Z</time>
      </trkpt>
      <trkpt lat="44.84196" lon="3.82975">
        <ele>1096</ele>
        <time>2023-11-15T09:46:44Z</time>
      </trkpt>
      <trkpt lat="44.84178" lon="3.82974">
        <ele>1096</ele>
        <time>2023-11-15T09:47:08Z</time>
      </trkpt>
      <trkpt lat="44.84141" lon="3.82987">
        <ele>1096</ele>
        <time>2023-11-15T09:47:59Z</time>
      </trkpt>
      <trkpt lat="44.84084" lon="3.83037">
        <ele>1098</ele>
        <time>2023-11-15T09:49:29Z</time>
      </trkpt>
      <trkpt lat="44.84071" lon="3.83051">
        <ele>1097</ele>
        <time>2023-11-15T09:49:51Z</time>
      </trkpt>
      <trkpt lat="44.84039" lon="3.83076">
        <ele>1095</ele>
        <time>2023-11-15T09:50:40Z</time>
      </trkpt>
      <trkpt lat="44.84022" lon="3.83087">
        <ele>1093</ele>
        <time>2023-11-15T09:51:05Z</time>
      </trkpt>
      <trkpt lat="44.84004" lon="3.83114">
        <ele>1094</ele>
        <time>2023-11-15T09:51:40Z</time>
      </trkpt>
      <trkpt lat="44.83989" lon="3.83148">
        <ele>1096</ele>
        <time>2023-11-15T09:52:18Z</time>
      </trkpt>
      <trkpt lat="44.8397" lon="3.83162">
        <ele>1095</ele>
        <time>2023-11-15T09:52:46Z</time>
      </trkpt>
      <trkpt lat="44.83968" lon="3.83166">
        <ele>1095</ele>
        <time>2023-11-15T09:52:51Z</time>
      </trkpt>
      <trkpt lat="44.83957" lon="3.83175">
        <ele>1095</ele>
        <time>2023-11-15T09:53:08Z</time>
      </trkpt>
      <trkpt lat="44.83951" lon="3.83198">
        <ele>1097</ele>
        <time>2023-11-15T09:53:31Z</time>
      </trkpt>
      <trkpt lat="44.83941" lon="3.83216">
        <ele>1098</ele>
        <time>2023-11-15T09:53:53Z</time>
      </trkpt>
      <trkpt lat="44.83928" lon="3.83234">
        <ele>1099</ele>
        <time>2023-11-15T09:54:17Z</time>
      </trkpt>
      <trkpt lat="44.83908" lon="3.8325">
        <ele>1099</ele>
        <time>2023-11-15T09:54:48Z</time>
      </trkpt>
      <trkpt lat="44.83852" lon="3.83272">
        <ele>1098</ele>
        <time>2023-11-15T09:56:05Z</time>
      </trkpt>
      <trkpt lat="44.83837" lon="3.8328">
        <ele>1098</ele>
        <time>2023-11-15T09:56:27Z</time>
      </trkpt>
      <trkpt lat="44.83788" lon="3.83275">
        <ele>1097</ele>
        <time>2023-11-15T09:57:32Z</time>
      </trkpt>
      <trkpt lat="44.83756" lon="3.83277">
        <ele>1097</ele>
        <time>2023-11-15T09:58:15Z</time>
      </trkpt>
      <trkpt lat="44.83722" lon="3.83283">
        <ele>1098</ele>
        <time>2023-11-15T09:59:01Z</time>
      </trkpt>
      <trkpt lat="44.83633" lon="3.83294">
        <ele>1100</ele>
        <time>2023-11-15T10:01:00Z</time>
      </trkpt>
      <trkpt lat="44.83567" lon="3.83297">
        <ele>1102</ele>
        <time>2023-11-15T10:02:28Z</time>
      </trkpt>
      <trkpt lat="44.83526" lon="3.83301">
        <ele>1102</ele>
        <time>2023-11-15T10:03:23Z</time>
      </trkpt>
      <trkpt lat="44.83511" lon="3.83304">
        <ele>1103</ele>
        <time>2023-11-15T10:03:43Z</time>
      </trkpt>
      <trkpt lat="44.83497" lon="3.83312">
        <ele>1103</ele>
        <time>2023-11-15T10:04:03Z</time>
      </trkpt>
      <trkpt lat="44.8349" lon="3.83314">
        <ele>1103</ele>
        <time>2023-11-15T10:04:13Z</time>
      </trkpt>
      <trkpt lat="44.83468" lon="3.83292">
        <ele>1103</ele>
        <time>2023-11-15T10:04:49Z</time>
      </trkpt>
      <trkpt lat="44.83456" lon="3.83273">
        <ele>1103</ele>
        <time>2023-11-15T10:05:13Z</time>
      </trkpt>
      <trkpt lat="44.8343" lon="3.83244">
        <ele>1104</ele>
        <time>2023-11-15T10:05:57Z</time>
      </trkpt>
      <trkpt lat="44.83405" lon="3.83213">
        <ele>1107</ele>
        <time>2023-11-15T10:06:41Z</time>
      </trkpt>
      <trkpt lat="44.83378" lon="3.83186">
        <ele>1108</ele>
        <time>2023-11-15T10:07:26Z</time>
      </trkpt>
      <trkpt lat="44.83318" lon="3.83132">
        <ele>1112</ele>
        <time>2023-11-15T10:09:01Z</time>
      </trkpt>
      <trkpt lat="44.83284" lon="3.83099">
        <ele>1114</ele>
        <time>2023-11-15T10:09:56Z</time>
      </trkpt>
      <trkpt lat="44.83226" lon="3.83038">
        <ele>1115</ele>
        <time>2023-11-15T10:11:32Z</time>
      </trkpt>
      <trkpt lat="44.83201" lon="3.83007">
        <ele>1115</ele>
        <time>2023-11-15T10:12:17Z</time>
      </trkpt>
      <trkpt lat="44.83177" lon="3.82972">
        <ele>1114</ele>
        <time>2023-11-15T10:13:03Z</time>
      </trkpt>
      <trkpt lat="44.83162" lon="3.82954">
        <ele>1113</ele>
        <time>2023-11-15T10:13:29Z</time>
      </trkpt>
      <trkpt lat="44.83126" lon="3.82898">
        <ele>1110</ele>
        <time>2023-11-15T10:14:40Z</time>
      </trkpt>
      <trkpt lat="44.83097" lon="3.82828">
        <ele>1109</ele>
        <time>2023-11-15T10:15:57Z</time>
      </trkpt>
      <trkpt lat="44.83083" lon="3.82789">
        <ele>1109</ele>
        <time>2023-11-15T10:16:39Z</time>
      </trkpt>
      <trkpt lat="44.83069" lon="3.82743">
        <ele>1107</ele>
        <time>2023-11-15T10:17:26Z</time>
      </trkpt>
      <trkpt lat="44.83061" lon="3.82723">
        <ele>1107</ele>
        <time>2023-11-15T10:17:48Z</time>
      </trkpt>
      <trkpt lat="44.83009" lon="3.82552">
        <ele>1110</ele>
        <time>2023-11-15T10:20:44Z</time>
      </trkpt>
      <trkpt lat="44.82987" lon="3.82493">
        <ele>1111</ele>
        <time>2023-11-15T10:21:47Z</time>
      </trkpt>
      <trkpt lat="44.82976" lon="3.82458">
        <ele>1112</ele>
        <time>2023-11-15T10:22:23Z</time>
      </trkpt>
      <trkpt lat="44.82953" lon="3.82414">
        <ele>1114</ele>
        <time>2023-11-15T10:23:15Z</time>
      </trkpt>
      <trkpt lat="44.82923" lon="3.82384">
        <ele>1114</ele>
        <time>2023-11-15T10:24:04Z</time>
      </trkpt>
      <trkpt lat="44.82873" lon="3.82348">
        <ele>1113</ele>
        <time>2023-11-15T10:25:19Z</time>
      </trkpt>
      <trkpt lat="44.82842" lon="3.82331">
        <ele>1112</ele>
        <time>2023-11-15T10:26:03Z</time>
      </trkpt>
      <trkpt lat="44.82774" lon="3.823">
        <ele>1107</ele>
        <time>2023-11-15T10:27:39Z</time>
      </trkpt>
      <trkpt lat="44.82761" lon="3.82297">
        <ele>1106</ele>
        <time>2023-11-15T10:27:56Z</time>
      </trkpt>
      <trkpt lat="44.82753" lon="3.82285">
        <ele>1106</ele>
        <time>2023-11-15T10:28:12Z</time>
      </trkpt>
      <trkpt lat="44.82721" lon="3.82251">
        <ele>1105</ele>
        <time>2023-11-15T10:29:05Z</time>
      </trkpt>
      <trkpt lat="44.82627" lon="3.82103">
        <ele>1099</ele>
        <time>2023-11-15T10:32:13Z</time>
      </trkpt>
      <trkpt lat="44.82586" lon="3.82041">
        <ele>1095</ele>
        <time>2023-11-15T10:33:33Z</time>
      </trkpt>
      <trkpt lat="44.82566" lon="3.82016">
        <ele>1093</ele>
        <time>2023-11-15T10:34:09Z</time>
      </trkpt>
      <trkpt lat="44.82518" lon="3.81968">
        <ele>1090</ele>
        <time>2023-11-15T10:35:28Z</time>
      </trkpt>
      <trkpt lat="44.82474" lon="3.81932">
        <ele>1089</ele>
        <time>2023-11-15T10:36:36Z</time>
      </trkpt>
      <trkpt lat="44.82425" lon="3.81888">
        <ele>1086</ele>
        <time>2023-11-15T10:37:53Z</time>
      </trkpt>
      <trkpt lat="44.82389" lon="3.81853">
        <ele>1084</ele>
        <time>2023-11-15T10:38:51Z</time>
      </trkpt>
      <trkpt lat="44.82318" lon="3.81765">
        <ele>1078</ele>
        <time>2023-11-15T10:40:58Z</time>
      </trkpt>
      <trkpt lat="44.82282" lon="3.81709">
        <ele>1075</ele>
        <time>2023-11-15T10:42:09Z</time>
      </trkpt>
      <trkpt lat="44.8226" lon="3.81665">
        <ele>1073</ele>
        <time>2023-11-15T10:43:00Z</time>
      </trkpt>
      <trkpt lat="44.82214" lon="3.81539">
        <ele>1067</ele>
        <time>2023-11-15T10:45:14Z</time>
      </trkpt>
      <trkpt lat="44.822" lon="3.81481">
        <ele>1065</ele>
        <time>2023-11-15T10:46:12Z</time>
      </trkpt>
      <trkpt lat="44.82177" lon="3.81397">
        <ele>1061</ele>
        <time>2023-11-15T10:47:37Z</time>
      </trkpt>
      <trkpt lat="44.82156" lon="3.81346">
        <ele>1059</ele>
        <time>2023-11-15T10:48:33Z</time>
      </trkpt>
      <trkpt lat="44.82145" lon="3.8131">
        <ele>1057</ele>
        <time>2023-11-15T10:49:10Z</time>
      </trkpt>
      <trkpt lat="44.82132" lon="3.81264">
        <ele>1055</ele>
        <time>2023-11-15T10:49:57Z</time>
      </trkpt>
      <trkpt lat="44.82117" lon="3.81196">
        <ele>1050</ele>
        <time>2023-11-15T10:51:05Z</time>
      </trkpt>
      <trkpt lat="44.82087" lon="3.81204">
        <ele>1049</ele>
        <time>2023-11-15T10:51:45Z</time>
      </trkpt>
      <trkpt lat="44.82067" lon="3.81206">
        <ele>1049</ele>
        <time>2023-11-15T10:52:12Z</time>
      </trkpt>
      <trkpt lat="44.82039" lon="3.81201">
        <ele>1049</ele>
        <time>2023-11-15T10:52:50Z</time>
      </trkpt>
      <trkpt lat="44.8201" lon="3.81186">
        <ele>1048</ele>
        <time>2023-11-15T10:53:31Z</time>
      </trkpt>
      <trkpt lat="44.8198" lon="3.81151">
        <ele>1046</ele>
        <time>2023-11-15T10:54:23Z</time>
      </trkpt>
      <trkpt lat="44.81967" lon="3.81138">
        <ele>1046</ele>
        <time>2023-11-15T10:54:44Z</time>
      </trkpt>
      <trkpt lat="44.81944" lon="3.81124">
        <ele>1045</ele>
        <time>2023-11-15T10:55:18Z</time>
      </trkpt>
      <trkpt lat="44.81938" lon="3.81123">
        <ele>1045</ele>
        <time>2023-11-15T10:55:26Z</time>
      </trkpt>
      <trkpt lat="44.81929" lon="3.81123">
        <ele>1045</ele>
        <time>2023-11-15T10:55:38Z</time>
      </trkpt>
      <trkpt lat="44.81822" lon="3.8119">
        <ele>1039</ele>
        <time>2023-11-15T10:58:14Z</time>
      </trkpt>
      <trkpt lat="44.81832" lon="3.81207">
        <ele>1039</ele>
        <time>2023-11-15T10:58:35Z</time>
      </trkpt>
      <trkpt lat="44.81862" lon="3.81272">
        <ele>1037</ele>
        <time>2023-11-15T10:59:48Z</time>
      </trkpt>
      <trkpt lat="44.81889" lon="3.81348">
        <ele>1036</ele>
        <time>2023-11-15T11:01:09Z</time>
      </trkpt>
      <trkpt lat="44.81895" lon="3.81379">
        <ele>1036</ele>
        <time>2023-11-15T11:01:39Z</time>
      </trkpt>
      <trkpt lat="44.81897" lon="3.81419">
        <ele>1034</ele>
        <time>2023-11-15T11:02:17Z</time>
      </trkpt>
      <trkpt lat="44.81892" lon="3.81459">
        <ele>1033</ele>
        <time>2023-11-15T11:02:56Z</time>
      </trkpt>
      <trkpt lat="44.81883" lon="3.81479">
        <ele>1031</ele>
        <time>2023-11-15T11:03:18Z</time>
      </trkpt>
      <trkpt lat="44.81872" lon="3.81494">
        <ele>1029</ele>
        <time>2023-11-15T11:03:38Z</time>
      </trkpt>
      <trkpt lat="44.81837" lon="3.81561">
        <ele>1024</ele>
        <time>2023-11-15T11:04:57Z</time>
      </trkpt>
      <trkpt lat="44.81821" lon="3.81569">
        <ele>1025</ele>
        <time>2023-11-15T11:05:20Z</time>
      </trkpt>
      <trkpt lat="44.81808" lon="3.81564">
        <ele>1027</ele>
        <time>2023-11-15T11:05:38Z</time>
      </trkpt>
      <trkpt lat="44.81784" lon="3.81547">
        <ele>1030</ele>
        <time>2023-11-15T11:06:14Z</time>
      </trkpt>
      <trkpt lat="44.81739" lon="3.81507">
        <ele>1032</ele>
        <time>2023-11-15T11:07:25Z</time>
      </trkpt>
      <trkpt lat="44.81728" lon="3.81495">
        <ele>1033</ele>
        <time>2023-11-15T11:07:43Z</time>
      </trkpt>
      <trkpt lat="44.81687" lon="3.81464">
        <ele>1035</ele>
        <time>2023-11-15T11:08:45Z</time>
      </trkpt>
      <trkpt lat="44.81674" lon="3.8146">
        <ele>1037</ele>
        <time>2023-11-15T11:09:03Z</time>
      </trkpt>
      <trkpt lat="44.81662" lon="3.81446">
        <ele>1037</ele>
        <time>2023-11-15T11:09:24Z</time>
      </trkpt>
      <trkpt lat="44.81653" lon="3.81439">
        <ele>1037</ele>
        <time>2023-11-15T11:09:38Z</time>
      </trkpt>
      <trkpt lat="44.81644" lon="3.81435">
        <ele>1037</ele>
        <time>2023-11-15T11:09:50Z</time>
      </trkpt>
      <trkpt lat="44.81618" lon="3.8143">
        <ele>1038</ele>
        <time>2023-11-15T11:10:25Z</time>
      </trkpt>
      <trkpt lat="44.81602" lon="3.81431">
        <ele>1039</ele>
        <time>2023-11-15T11:10:47Z</time>
      </trkpt>
      <trkpt lat="44.81562" lon="3.81442">
        <ele>1041</ele>
        <time>2023-11-15T11:11:41Z</time>
      </trkpt>
      <trkpt lat="44.81532" lon="3.81441">
        <ele>1041</ele>
        <time>2023-11-15T11:12:21Z</time>
      </trkpt>
      <trkpt lat="44.815" lon="3.81451">
        <ele>1041</ele>
        <time>2023-11-15T11:13:05Z</time>
      </trkpt>
      <trkpt lat="44.81471" lon="3.8147">
        <ele>1041</ele>
        <time>2023-11-15T11:13:47Z</time>
      </trkpt>
      <trkpt lat="44.81464" lon="3.81473">
        <ele>1041</ele>
        <time>2023-11-15T11:13:57Z</time>
      </trkpt>
      <trkpt lat="44.81447" lon="3.81474">
        <ele>1041</ele>
        <time>2023-11-15T11:14:20Z</time>
      </trkpt>
      <trkpt lat="44.81431" lon="3.81472">
        <ele>1040</ele>
        <time>2023-11-15T11:14:41Z</time>
      </trkpt>
      <trkpt lat="44.81415" lon="3.81473">
        <ele>1040</ele>
        <time>2023-11-15T11:15:03Z</time>
      </trkpt>
      <trkpt lat="44.81352" lon="3.81581">
        <ele>1041</ele>
        <time>2023-11-15T11:17:15Z</time>
      </trkpt>
      <trkpt lat="44.81341" lon="3.81596">
        <ele>1042</ele>
        <time>2023-11-15T11:17:35Z</time>
      </trkpt>
      <trkpt lat="44.81333" lon="3.81611">
        <ele>1043</ele>
        <time>2023-11-15T11:17:53Z</time>
      </trkpt>
      <trkpt lat="44.81319" lon="3.81623">
        <ele>1043</ele>
        <time>2023-11-15T11:18:15Z</time>
      </trkpt>
      <trkpt lat="44.81265" lon="3.81646">
        <ele>1041</ele>
        <time>2023-11-15T11:19:30Z</time>
      </trkpt>
      <trkpt lat="44.81245" lon="3.81672">
        <ele>1041</ele>
        <time>2023-11-15T11:20:07Z</time>
      </trkpt>
      <trkpt lat="44.81205" lon="3.81731">
        <ele>1040</ele>
        <time>2023-11-15T11:21:24Z</time>
      </trkpt>
      <trkpt lat="44.81192" lon="3.81754">
        <ele>1040</ele>
        <time>2023-11-15T11:21:52Z</time>
      </trkpt>
      <trkpt lat="44.81186" lon="3.8176">
        <ele>1040</ele>
        <time>2023-11-15T11:22:02Z</time>
      </trkpt>
      <trkpt lat="44.81157" lon="3.8172">
        <ele>1038</ele>
        <time>2023-11-15T11:22:56Z</time>
      </trkpt>
      <trkpt lat="44.81151" lon="3.81717">
        <ele>1038</ele>
        <time>2023-11-15T11:23:04Z</time>
      </trkpt>
      <trkpt lat="44.81146" lon="3.81726">
        <ele>1038</ele>
        <time>2023-11-15T11:23:15Z</time>
      </trkpt>
      <trkpt lat="44.81137" lon="3.8175">
        <ele>1037</ele>
        <time>2023-11-15T11:23:41Z</time>
      </trkpt>
      <trkpt lat="44.81043" lon="3.81939">
        <ele>1036</ele>
        <time>2023-11-15T11:27:19Z</time>
      </trkpt>
      <trkpt lat="44.81031" lon="3.81967">
        <ele>1036</ele>
        <time>2023-11-15T11:27:50Z</time>
      </trkpt>
      <trkpt lat="44.81007" lon="3.82011">
        <ele>1035</ele>
        <time>2023-11-15T11:28:43Z</time>
      </trkpt>
      <trkpt lat="44.80981" lon="3.82068">
        <ele>1033</ele>
        <time>2023-11-15T11:29:47Z</time>
      </trkpt>
      <trkpt lat="44.80932" lon="3.82188">
        <ele>1024</ele>
        <time>2023-11-15T11:31:58Z</time>
      </trkpt>
      <trkpt lat="44.80903" lon="3.82242">
        <ele>1021</ele>
        <time>2023-11-15T11:33:02Z</time>
      </trkpt>
      <trkpt lat="44.80901" lon="3.82302">
        <ele>1022</ele>
        <time>2023-11-15T11:33:59Z</time>
      </trkpt>
      <trkpt lat="44.80898" lon="3.8231">
        <ele>1022</ele>
        <time>2023-11-15T11:34:08Z</time>
      </trkpt>
      <trkpt lat="44.80888" lon="3.82323">
        <ele>1022</ele>
        <time>2023-11-15T11:34:26Z</time>
      </trkpt>
      <trkpt lat="44.80878" lon="3.82331">
        <ele>1021</ele>
        <time>2023-11-15T11:34:41Z</time>
      </trkpt>
      <trkpt lat="44.80853" lon="3.8234">
        <ele>1020</ele>
        <time>2023-11-15T11:35:16Z</time>
      </trkpt>
      <trkpt lat="44.80832" lon="3.82345">
        <ele>1019</ele>
        <time>2023-11-15T11:35:44Z</time>
      </trkpt>
      <trkpt lat="44.80779" lon="3.82349">
        <ele>1016</ele>
        <time>2023-11-15T11:36:55Z</time>
      </trkpt>
      <trkpt lat="44.80744" lon="3.82349">
        <ele>1014</ele>
        <time>2023-11-15T11:37:41Z</time>
      </trkpt>
      <trkpt lat="44.80713" lon="3.82367">
        <ele>1009</ele>
        <time>2023-11-15T11:38:26Z</time>
      </trkpt>
      <trkpt lat="44.807" lon="3.82379">
        <ele>1007</ele>
        <time>2023-11-15T11:38:47Z</time>
      </trkpt>
      <trkpt lat="44.8069" lon="3.82385">
        <ele>1005</ele>
        <time>2023-11-15T11:39:01Z</time>
      </trkpt>
      <trkpt lat="44.80681" lon="3.82504">
        <ele>1005</ele>
        <time>2023-11-15T11:40:55Z</time>
      </trkpt>
      <trkpt lat="44.80673" lon="3.82538">
        <ele>1000</ele>
        <time>2023-11-15T11:41:29Z</time>
      </trkpt>
      <trkpt lat="44.80673" lon="3.82572">
        <ele>997</ele>
        <time>2023-11-15T11:42:01Z</time>
      </trkpt>
      <trkpt lat="44.80676" lon="3.82592">
        <ele>995</ele>
        <time>2023-11-15T11:42:20Z</time>
      </trkpt>
      <trkpt lat="44.80682" lon="3.82607">
        <ele>994</ele>
        <time>2023-11-15T11:42:37Z</time>
      </trkpt>
      <trkpt lat="44.80691" lon="3.82619">
        <ele>994</ele>
        <time>2023-11-15T11:42:53Z</time>
      </trkpt>
      <trkpt lat="44.80723" lon="3.82643">
        <ele>997</ele>
        <time>2023-11-15T11:43:41Z</time>
      </trkpt>
      <trkpt lat="44.80738" lon="3.82676">
        <ele>996</ele>
        <time>2023-11-15T11:44:19Z</time>
      </trkpt>
      <trkpt lat="44.80749" lon="3.8274">
        <ele>990</ele>
        <time>2023-11-15T11:45:21Z</time>
      </trkpt>
      <trkpt lat="44.80747" lon="3.82778">
        <ele>992</ele>
        <time>2023-11-15T11:45:57Z</time>
      </trkpt>
      <trkpt lat="44.80738" lon="3.82788">
        <ele>993</ele>
        <time>2023-11-15T11:46:12Z</time>
      </trkpt>
      <trkpt lat="44.8073" lon="3.82792">
        <ele>993</ele>
        <time>2023-11-15T11:46:24Z</time>
      </trkpt>
      <trkpt lat="44.8072" lon="3.82789">
        <ele>992</ele>
        <time>2023-11-15T11:46:37Z</time>
      </trkpt>
      <trkpt lat="44.80703" lon="3.82781">
        <ele>991</ele>
        <time>2023-11-15T11:47:01Z</time>
      </trkpt>
      <trkpt lat="44.80663" lon="3.82748">
        <ele>985</ele>
        <time>2023-11-15T11:48:03Z</time>
      </trkpt>
      <trkpt lat="44.80636" lon="3.8273">
        <ele>987</ele>
        <time>2023-11-15T11:48:43Z</time>
      </trkpt>
      <trkpt lat="44.80608" lon="3.82723">
        <ele>989</ele>
        <time>2023-11-15T11:49:21Z</time>
      </trkpt>
      <trkpt lat="44.80539" lon="3.82752">
        <ele>1001</ele>
        <time>2023-11-15T11:50:57Z</time>
      </trkpt>
      <trkpt lat="44.8047" lon="3.82784">
        <ele>1007</ele>
        <time>2023-11-15T11:52:34Z</time>
      </trkpt>
      <trkpt lat="44.8043" lon="3.8282">
        <ele>1009</ele>
        <time>2023-11-15T11:53:37Z</time>
      </trkpt>
      <trkpt lat="44.8042" lon="3.82827">
        <ele>1009</ele>
        <time>2023-11-15T11:53:52Z</time>
      </trkpt>
      <trkpt lat="44.80418" lon="3.82845">
        <ele>1010</ele>
        <time>2023-11-15T11:54:09Z</time>
      </trkpt>
      <trkpt lat="44.80406" lon="3.82868">
        <ele>1011</ele>
        <time>2023-11-15T11:54:36Z</time>
      </trkpt>
      <trkpt lat="44.80385" lon="3.82894">
        <ele>1012</ele>
        <time>2023-11-15T11:55:14Z</time>
      </trkpt>
      <trkpt lat="44.80329" lon="3.82953">
        <ele>1018</ele>
        <time>2023-11-15T11:56:47Z</time>
      </trkpt>
      <trkpt lat="44.80326" lon="3.82961">
        <ele>1018</ele>
        <time>2023-11-15T11:56:56Z</time>
      </trkpt>
      <trkpt lat="44.80333" lon="3.83023">
        <ele>1024</ele>
        <time>2023-11-15T11:57:55Z</time>
      </trkpt>
      <trkpt lat="44.80367" lon="3.83017">
        <ele>1024</ele>
        <time>2023-11-15T11:58:41Z</time>
      </trkpt>
      <trkpt lat="44.80477" lon="3.83025">
        <ele>1028</ele>
        <time>2023-11-15T12:01:08Z</time>
      </trkpt>
      <trkpt lat="44.80513" lon="3.83036">
        <ele>1030</ele>
        <time>2023-11-15T12:01:57Z</time>
      </trkpt>
      <trkpt lat="44.80545" lon="3.83054">
        <ele>1032</ele>
        <time>2023-11-15T12:02:43Z</time>
      </trkpt>
      <trkpt lat="44.80561" lon="3.83061">
        <ele>1033</ele>
        <time>2023-11-15T12:03:05Z</time>
      </trkpt>
      <trkpt lat="44.80619" lon="3.83078">
        <ele>1035</ele>
        <time>2023-11-15T12:04:24Z</time>
      </trkpt>
      <trkpt lat="44.80655" lon="3.83082">
        <ele>1035</ele>
        <time>2023-11-15T12:05:12Z</time>
      </trkpt>
      <trkpt lat="44.80668" lon="3.83089">
        <ele>1036</ele>
        <time>2023-11-15T12:05:31Z</time>
      </trkpt>
      <trkpt lat="44.80676" lon="3.83099">
        <ele>1036</ele>
        <time>2023-11-15T12:05:45Z</time>
      </trkpt>
      <trkpt lat="44.8068" lon="3.8312">
        <ele>1038</ele>
        <time>2023-11-15T12:06:06Z</time>
      </trkpt>
      <trkpt lat="44.80675" lon="3.83147">
        <ele>1043</ele>
        <time>2023-11-15T12:06:32Z</time>
      </trkpt>
      <trkpt lat="44.8064" lon="3.83261">
        <ele>1059</ele>
        <time>2023-11-15T12:08:30Z</time>
      </trkpt>
      <trkpt lat="44.80631" lon="3.83307">
        <ele>1063</ele>
        <time>2023-11-15T12:09:15Z</time>
      </trkpt>
      <trkpt lat="44.80616" lon="3.83348">
        <ele>1067</ele>
        <time>2023-11-15T12:09:59Z</time>
      </trkpt>
      <trkpt lat="44.80609" lon="3.83361">
        <ele>1069</ele>
        <time>2023-11-15T12:10:14Z</time>
      </trkpt>
      <trkpt lat="44.80551" lon="3.83443">
        <ele>1077</ele>
        <time>2023-11-15T12:12:04Z</time>
      </trkpt>
      <trkpt lat="44.8054" lon="3.83465">
        <ele>1079</ele>
        <time>2023-11-15T12:12:29Z</time>
      </trkpt>
      <trkpt lat="44.80523" lon="3.83493">
        <ele>1081</ele>
        <time>2023-11-15T12:13:04Z</time>
      </trkpt>
      <trkpt lat="44.80511" lon="3.83502">
        <ele>1082</ele>
        <time>2023-11-15T12:13:22Z</time>
      </trkpt>
      <trkpt lat="44.80483" lon="3.83541">
        <ele>1086</ele>
        <time>2023-11-15T12:14:15Z</time>
      </trkpt>
      <trkpt lat="44.80474" lon="3.83557">
        <ele>1087</ele>
        <time>2023-11-15T12:14:34Z</time>
      </trkpt>
      <trkpt lat="44.8046" lon="3.83589">
        <ele>1090</ele>
        <time>2023-11-15T12:15:10Z</time>
      </trkpt>
      <trkpt lat="44.80432" lon="3.83637">
        <ele>1095</ele>
        <time>2023-11-15T12:16:09Z</time>
      </trkpt>
      <trkpt lat="44.80418" lon="3.83654">
        <ele>1096</ele>
        <time>2023-11-15T12:16:33Z</time>
      </trkpt>
      <trkpt lat="44.80397" lon="3.83694">
        <ele>1098</ele>
        <time>2023-11-15T12:17:20Z</time>
      </trkpt>
      <trkpt lat="44.8038" lon="3.83754">
        <ele>1101</ele>
        <time>2023-11-15T12:18:22Z</time>
      </trkpt>
      <trkpt lat="44.80378" lon="3.8377">
        <ele>1101</ele>
        <time>2023-11-15T12:18:37Z</time>
      </trkpt>
      <trkpt lat="44.80372" lon="3.83796">
        <ele>1102</ele>
        <time>2023-11-15T12:19:03Z</time>
      </trkpt>
      <trkpt lat="44.80352" lon="3.83841">
        <ele>1105</ele>
        <time>2023-11-15T12:19:53Z</time>
      </trkpt>
      <trkpt lat="44.80321" lon="3.83921">
        <ele>1109</ele>
        <time>2023-11-15T12:21:19Z</time>
      </trkpt>
      <trkpt lat="44.80304" lon="3.83954">
        <ele>1111</ele>
        <time>2023-11-15T12:21:58Z</time>
      </trkpt>
      <trkpt lat="44.8029" lon="3.83996">
        <ele>1114</ele>
        <time>2023-11-15T12:22:42Z</time>
      </trkpt>
      <trkpt lat="44.80275" lon="3.84026">
        <ele>1117</ele>
        <time>2023-11-15T12:23:17Z</time>
      </trkpt>
      <trkpt lat="44.80261" lon="3.84062">
        <ele>1120</ele>
        <time>2023-11-15T12:23:56Z</time>
      </trkpt>
      <trkpt lat="44.80233" lon="3.84125">
        <ele>1126</ele>
        <time>2023-11-15T12:25:06Z</time>
      </trkpt>
      <trkpt lat="44.80232" lon="3.84136">
        <ele>1127</ele>
        <time>2023-11-15T12:25:16Z</time>
      </trkpt>
      <trkpt lat="44.80193" lon="3.843">
        <ele>1140</ele>
        <time>2023-11-15T12:28:00Z</time>
      </trkpt>
      <trkpt lat="44.801" lon="3.84552">
        <ele>1154</ele>
        <time>2023-11-15T12:32:29Z</time>
      </trkpt>
      <trkpt lat="44.80096" lon="3.8457">
        <ele>1154</ele>
        <time>2023-11-15T12:32:47Z</time>
      </trkpt>
      <trkpt lat="44.80091" lon="3.8463">
        <ele>1153</ele>
        <time>2023-11-15T12:33:44Z</time>
      </trkpt>
      <trkpt lat="44.8007" lon="3.84672">
        <ele>1151</ele>
        <time>2023-11-15T12:34:33Z</time>
      </trkpt>
      <trkpt lat="44.80067" lon="3.84682">
        <ele>1150</ele>
        <time>2023-11-15T12:34:43Z</time>
      </trkpt>
      <trkpt lat="44.80066" lon="3.84708">
        <ele>1149</ele>
        <time>2023-11-15T12:35:08Z</time>
      </trkpt>
      <trkpt lat="44.80068" lon="3.84742">
        <ele>1148</ele>
        <time>2023-11-15T12:35:40Z</time>
      </trkpt>
      <trkpt lat="44.80072" lon="3.84768">
        <ele>1148</ele>
        <time>2023-11-15T12:36:05Z</time>
      </trkpt>
      <trkpt lat="44.80075" lon="3.84803">
        <ele>1147</ele>
        <time>2023-11-15T12:36:39Z</time>
      </trkpt>
      <trkpt lat="44.80075" lon="3.84839">
        <ele>1146</ele>
        <time>2023-11-15T12:37:13Z</time>
      </trkpt>
      <trkpt lat="44.80079" lon="3.84924">
        <ele>1145</ele>
        <time>2023-11-15T12:38:33Z</time>
      </trkpt>
      <trkpt lat="44.80076" lon="3.85025">
        <ele>1140</ele>
        <time>2023-11-15T12:40:09Z</time>
      </trkpt>
      <trkpt lat="44.80072" lon="3.85039">
        <ele>1140</ele>
        <time>2023-11-15T12:40:23Z</time>
      </trkpt>
      <trkpt lat="44.80059" lon="3.85054">
        <ele>1139</ele>
        <time>2023-11-15T12:40:46Z</time>
      </trkpt>
      <trkpt lat="44.80072" lon="3.85085">
        <ele>1140</ele>
        <time>2023-11-15T12:41:20Z</time>
      </trkpt>
      <trkpt lat="44.80066" lon="3.85097">
        <ele>1141</ele>
        <time>2023-11-15T12:41:34Z</time>
      </trkpt>
      <trkpt lat="44.80025" lon="3.85153">
        <ele>1143</ele>
        <time>2023-11-15T12:42:50Z</time>
      </trkpt>
      <trkpt lat="44.8002" lon="3.85157">
        <ele>1143</ele>
        <time>2023-11-15T12:42:58Z</time>
      </trkpt>
      <trkpt lat="44.79981" lon="3.85215">
        <ele>1145</ele>
        <time>2023-11-15T12:44:13Z</time>
      </trkpt>
      <trkpt lat="44.79944" lon="3.85265">
        <ele>1145</ele>
        <time>2023-11-15T12:45:22Z</time>
      </trkpt>
      <trkpt lat="44.79909" lon="3.85303">
        <ele>1145</ele>
        <time>2023-11-15T12:46:21Z</time>
      </trkpt>
      <trkpt lat="44.79892" lon="3.85315">
        <ele>1145</ele>
        <time>2023-11-15T12:46:46Z</time>
      </trkpt>
      <trkpt lat="44.79831" lon="3.85365">
        <ele>1146</ele>
        <time>2023-11-15T12:48:20Z</time>
      </trkpt>
      <trkpt lat="44.79798" lon="3.85396">
        <ele>1146</ele>
        <time>2023-11-15T12:49:13Z</time>
      </trkpt>
      <trkpt lat="44.79734" lon="3.85468">
        <ele>1149</ele>
        <time>2023-11-15T12:51:03Z</time>
      </trkpt>
      <trkpt lat="44.79701" lon="3.85518">
        <ele>1154</ele>
        <time>2023-11-15T12:52:07Z</time>
      </trkpt>
      <trkpt lat="44.79684" lon="3.8553">
        <ele>1154</ele>
        <time>2023-11-15T12:52:33Z</time>
      </trkpt>
      <trkpt lat="44.79655" lon="3.85544">
        <ele>1153</ele>
        <time>2023-11-15T12:53:13Z</time>
      </trkpt>
      <trkpt lat="44.79634" lon="3.85558">
        <ele>1153</ele>
        <time>2023-11-15T12:53:44Z</time>
      </trkpt>
      <trkpt lat="44.79585" lon="3.85597">
        <ele>1153</ele>
        <time>2023-11-15T12:55:00Z</time>
      </trkpt>
      <trkpt lat="44.79497" lon="3.85671">
        <ele>1149</ele>
        <time>2023-11-15T12:57:16Z</time>
      </trkpt>
      <trkpt lat="44.7946" lon="3.85739">
        <ele>1152</ele>
        <time>2023-11-15T12:58:37Z</time>
      </trkpt>
      <trkpt lat="44.79418" lon="3.85807">
        <ele>1153</ele>
        <time>2023-11-15T13:00:03Z</time>
      </trkpt>
      <trkpt lat="44.79383" lon="3.85856">
        <ele>1155</ele>
        <time>2023-11-15T13:01:09Z</time>
      </trkpt>
      <trkpt lat="44.79365" lon="3.85878">
        <ele>1157</ele>
        <time>2023-11-15T13:01:40Z</time>
      </trkpt>
      <trkpt lat="44.79361" lon="3.85873">
        <ele>1156</ele>
        <time>2023-11-15T13:01:48Z</time>
      </trkpt>
      <trkpt lat="44.79327" lon="3.85868">
        <ele>1157</ele>
        <time>2023-11-15T13:02:33Z</time>
      </trkpt>
      <trkpt lat="44.79249" lon="3.85873">
        <ele>1157</ele>
        <time>2023-11-15T13:04:17Z</time>
      </trkpt>
      <trkpt lat="44.79217" lon="3.85872">
        <ele>1156</ele>
        <time>2023-11-15T13:05:00Z</time>
      </trkpt>
      <trkpt lat="44.79173" lon="3.85879">
        <ele>1156</ele>
        <time>2023-11-15T13:05:59Z</time>
      </trkpt>
      <trkpt lat="44.79142" lon="3.85895">
        <ele>1157</ele>
        <time>2023-11-15T13:06:43Z</time>
      </trkpt>
      <trkpt lat="44.79125" lon="3.859">
        <ele>1158</ele>
        <time>2023-11-15T13:07:06Z</time>
      </trkpt>
      <trkpt lat="44.79107" lon="3.85908">
        <ele>1158</ele>
        <time>2023-11-15T13:07:32Z</time>
      </trkpt>
      <trkpt lat="44.79068" lon="3.85916">
        <ele>1158</ele>
        <time>2023-11-15T13:08:24Z</time>
      </trkpt>
      <trkpt lat="44.79033" lon="3.85917">
        <ele>1155</ele>
        <time>2023-11-15T13:09:11Z</time>
      </trkpt>
      <trkpt lat="44.79011" lon="3.85932">
        <ele>1155</ele>
        <time>2023-11-15T13:09:44Z</time>
      </trkpt>
      <trkpt lat="44.78967" lon="3.85967">
        <ele>1151</ele>
        <time>2023-11-15T13:10:51Z</time>
      </trkpt>
      <trkpt lat="44.7896" lon="3.85978">
        <ele>1151</ele>
        <time>2023-11-15T13:11:05Z</time>
      </trkpt>
      <trkpt lat="44.78959" lon="3.85985">
        <ele>1152</ele>
        <time>2023-11-15T13:11:12Z</time>
      </trkpt>
      <trkpt lat="44.78963" lon="3.86048">
        <ele>1155</ele>
        <time>2023-11-15T13:12:12Z</time>
      </trkpt>
      <trkpt lat="44.78951" lon="3.86093">
        <ele>1156</ele>
        <time>2023-11-15T13:12:57Z</time>
      </trkpt>
      <trkpt lat="44.78939" lon="3.86102">
        <ele>1156</ele>
        <time>2023-11-15T13:13:15Z</time>
      </trkpt>
      <trkpt lat="44.78931" lon="3.861">
        <ele>1155</ele>
        <time>2023-11-15T13:13:26Z</time>
      </trkpt>
      <trkpt lat="44.78926" lon="3.86097">
        <ele>1154</ele>
        <time>2023-11-15T13:13:33Z</time>
      </trkpt>
      <trkpt lat="44.78922" lon="3.86091">
        <ele>1153</ele>
        <time>2023-11-15T13:13:41Z</time>
      </trkpt>
      <trkpt lat="44.78883" lon="3.86052">
        <ele>1153</ele>
        <time>2023-11-15T13:14:45Z</time>
      </trkpt>
      <trkpt lat="44.78878" lon="3.86049">
        <ele>1153</ele>
        <time>2023-11-15T13:14:52Z</time>
      </trkpt>
      <trkpt lat="44.7886" lon="3.86049">
        <ele>1154</ele>
        <time>2023-11-15T13:15:16Z</time>
      </trkpt>
      <trkpt lat="44.78845" lon="3.86064">
        <ele>1157</ele>
        <time>2023-11-15T13:15:41Z</time>
      </trkpt>
      <trkpt lat="44.78824" lon="3.86079">
        <ele>1160</ele>
        <time>2023-11-15T13:16:12Z</time>
      </trkpt>
      <trkpt lat="44.78795" lon="3.86094">
        <ele>1164</ele>
        <time>2023-11-15T13:16:53Z</time>
      </trkpt>
      <trkpt lat="44.78742" lon="3.86132">
        <ele>1172</ele>
        <time>2023-11-15T13:18:13Z</time>
      </trkpt>
      <trkpt lat="44.7873" lon="3.86143">
        <ele>1173</ele>
        <time>2023-11-15T13:18:32Z</time>
      </trkpt>
      <trkpt lat="44.78723" lon="3.86153">
        <ele>1174</ele>
        <time>2023-11-15T13:18:45Z</time>
      </trkpt>
      <trkpt lat="44.78684" lon="3.86246">
        <ele>1184</ele>
        <time>2023-11-15T13:20:28Z</time>
      </trkpt>
      <trkpt lat="44.78665" lon="3.86298">
        <ele>1187</ele>
        <time>2023-11-15T13:21:23Z</time>
      </trkpt>
      <trkpt lat="44.78651" lon="3.86326">
        <ele>1189</ele>
        <time>2023-11-15T13:21:55Z</time>
      </trkpt>
      <trkpt lat="44.78644" lon="3.86344">
        <ele>1190</ele>
        <time>2023-11-15T13:22:15Z</time>
      </trkpt>
      <trkpt lat="44.78629" lon="3.8637">
        <ele>1191</ele>
        <time>2023-11-15T13:22:47Z</time>
      </trkpt>
      <trkpt lat="44.78621" lon="3.86389">
        <ele>1193</ele>
        <time>2023-11-15T13:23:07Z</time>
      </trkpt>
      <trkpt lat="44.78599" lon="3.86429">
        <ele>1197</ele>
        <time>2023-11-15T13:23:55Z</time>
      </trkpt>
      <trkpt lat="44.7855" lon="3.86527">
        <ele>1205</ele>
        <time>2023-11-15T13:25:49Z</time>
      </trkpt>
      <trkpt lat="44.78546" lon="3.86551">
        <ele>1207</ele>
        <time>2023-11-15T13:26:12Z</time>
      </trkpt>
      <trkpt lat="44.7854" lon="3.86574">
        <ele>1209</ele>
        <time>2023-11-15T13:26:36Z</time>
      </trkpt>
      <trkpt lat="44.78512" lon="3.86609">
        <ele>1209</ele>
        <time>2023-11-15T13:27:25Z</time>
      </trkpt>
      <trkpt lat="44.78375" lon="3.86813">
        <ele>1216</ele>
        <time>2023-11-15T13:31:51Z</time>
      </trkpt>
      <trkpt lat="44.78361" lon="3.8685">
        <ele>1219</ele>
        <time>2023-11-15T13:32:31Z</time>
      </trkpt>
      <trkpt lat="44.78341" lon="3.86891">
        <ele>1222</ele>
        <time>2023-11-15T13:33:18Z</time>
      </trkpt>
      <trkpt lat="44.78311" lon="3.86943">
        <ele>1225</ele>
        <time>2023-11-15T13:34:22Z</time>
      </trkpt>
      <trkpt lat="44.7828" lon="3.87013">
        <ele>1230</ele>
        <time>2023-11-15T13:35:40Z</time>
      </trkpt>
      <trkpt lat="44.78248" lon="3.87104">
        <ele>1233</ele>
        <time>2023-11-15T13:37:16Z</time>
      </trkpt>
      <trkpt lat="44.78248" lon="3.8713">
        <ele>1232</ele>
        <time>2023-11-15T13:37:41Z</time>
      </trkpt>
      <trkpt lat="44.7826" lon="3.87167">
        <ele>1233</ele>
        <time>2023-11-15T13:38:19Z</time>
      </trkpt>
      <trkpt lat="44.78273" lon="3.87189">
        <ele>1233</ele>
        <time>2023-11-15T13:38:46Z</time>
      </trkpt>
      <trkpt lat="44.78311" lon="3.87272">
        <ele>1233</ele>
        <time>2023-11-15T13:40:20Z</time>
      </trkpt>
      <trkpt lat="44.78344" lon="3.87359">
        <ele>1234</ele>
        <time>2023-11-15T13:41:53Z</time>
      </trkpt>
      <trkpt lat="44.78359" lon="3.8739">
        <ele>1235</ele>
        <time>2023-11-15T13:42:29Z</time>
      </trkpt>
      <trkpt lat="44.78371" lon="3.87402">
        <ele>1235</ele>
        <time>2023-11-15T13:42:49Z</time>
      </trkpt>
      <trkpt lat="44.78389" lon="3.87415">
        <ele>1237</ele>
        <time>2023-11-15T13:43:16Z</time>
      </trkpt>
      <trkpt lat="44.78425" lon="3.87454">
        <ele>1239</ele>
        <time>2023-11-15T13:44:16Z</time>
      </trkpt>
      <trkpt lat="44.7844" lon="3.87474">
        <ele>1239</ele>
        <time>2023-11-15T13:44:44Z</time>
      </trkpt>
      <trkpt lat="44.7846" lon="3.87495">
        <ele>1238</ele>
        <time>2023-11-15T13:45:17Z</time>
      </trkpt>
      <trkpt lat="44.78514" lon="3.87527">
        <ele>1236</ele>
        <time>2023-11-15T13:46:35Z</time>
      </trkpt>
      <trkpt lat="44.78509" lon="3.87531">
        <ele>1236</ele>
        <time>2023-11-15T13:46:43Z</time>
      </trkpt>
      <trkpt lat="44.78493" lon="3.87529">
        <ele>1236</ele>
        <time>2023-11-15T13:47:04Z</time>
      </trkpt>
      <trkpt lat="44.78448" lon="3.87529">
        <ele>1236</ele>
        <time>2023-11-15T13:48:04Z</time>
      </trkpt>
      <trkpt lat="44.78432" lon="3.87531">
        <ele>1235</ele>
        <time>2023-11-15T13:48:26Z</time>
      </trkpt>
      <trkpt lat="44.78398" lon="3.87539">
        <ele>1234</ele>
        <time>2023-11-15T13:49:12Z</time>
      </trkpt>
      <trkpt lat="44.78357" lon="3.87555">
        <ele>1232</ele>
        <time>2023-11-15T13:50:09Z</time>
      </trkpt>
      <trkpt lat="44.78343" lon="3.87563">
        <ele>1232</ele>
        <time>2023-11-15T13:50:29Z</time>
      </trkpt>
      <trkpt lat="44.78318" lon="3.87584">
        <ele>1230</ele>
        <time>2023-11-15T13:51:08Z</time>
      </trkpt>
      <trkpt lat="44.78268" lon="3.87638">
        <ele>1230</ele>
        <time>2023-11-15T13:52:32Z</time>
      </trkpt>
      <trkpt lat="44.78245" lon="3.87657">
        <ele>1231</ele>
        <time>2023-11-15T13:53:07Z</time>
      </trkpt>
      <trkpt lat="44.78217" lon="3.87671">
        <ele>1230</ele>
        <time>2023-11-15T13:53:47Z</time>
      </trkpt>
      <trkpt lat="44.78173" lon="3.8768">
        <ele>1228</ele>
        <time>2023-11-15T13:54:46Z</time>
      </trkpt>
      <trkpt lat="44.78135" lon="3.87685">
        <ele>1223</ele>
        <time>2023-11-15T13:55:37Z</time>
      </trkpt>
      <trkpt lat="44.78121" lon="3.87692">
        <ele>1221</ele>
        <time>2023-11-15T13:55:57Z</time>
      </trkpt>
      <trkpt lat="44.78093" lon="3.87702">
        <ele>1217</ele>
        <time>2023-11-15T13:56:35Z</time>
      </trkpt>
      <trkpt lat="44.78063" lon="3.87725">
        <ele>1213</ele>
        <time>2023-11-15T13:57:21Z</time>
      </trkpt>
      <trkpt lat="44.78046" lon="3.87736">
        <ele>1211</ele>
        <time>2023-11-15T13:57:46Z</time>
      </trkpt>
      <trkpt lat="44.78004" lon="3.87769">
        <ele>1206</ele>
        <time>2023-11-15T13:58:50Z</time>
      </trkpt>
      <trkpt lat="44.77965" lon="3.87815">
        <ele>1203</ele>
        <time>2023-11-15T13:59:58Z</time>
      </trkpt>
      <trkpt lat="44.779" lon="3.87871">
        <ele>1192</ele>
        <time>2023-11-15T14:01:40Z</time>
      </trkpt>
      <trkpt lat="44.77864" lon="3.8795">
        <ele>1186</ele>
        <time>2023-11-15T14:03:09Z</time>
      </trkpt>
      <trkpt lat="44.77844" lon="3.8799">
        <ele>1184</ele>
        <time>2023-11-15T14:03:55Z</time>
      </trkpt>
      <trkpt lat="44.77825" lon="3.8802">
        <ele>1180</ele>
        <time>2023-11-15T14:04:33Z</time>
      </trkpt>
      <trkpt lat="44.77793" lon="3.88064">
        <ele>1173</ele>
        <time>2023-11-15T14:05:33Z</time>
      </trkpt>
      <trkpt lat="44.77768" lon="3.88092">
        <ele>1167</ele>
        <time>2023-11-15T14:06:15Z</time>
      </trkpt>
      <trkpt lat="44.77749" lon="3.88119">
        <ele>1163</ele>
        <time>2023-11-15T14:06:51Z</time>
      </trkpt>
      <trkpt lat="44.7773" lon="3.88141">
        <ele>1158</ele>
        <time>2023-11-15T14:07:24Z</time>
      </trkpt>
      <trkpt lat="44.77696" lon="3.88239">
        <ele>1157</ele>
        <time>2023-11-15T14:09:08Z</time>
      </trkpt>
      <trkpt lat="44.77678" lon="3.88283">
        <ele>1155</ele>
        <time>2023-11-15T14:09:56Z</time>
      </trkpt>
      <trkpt lat="44.77666" lon="3.88303">
        <ele>1153</ele>
        <time>2023-11-15T14:10:20Z</time>
      </trkpt>
      <trkpt lat="44.7766" lon="3.88309">
        <ele>1153</ele>
        <time>2023-11-15T14:10:30Z</time>
      </trkpt>
      <trkpt lat="44.77651" lon="3.88311">
        <ele>1153</ele>
        <time>2023-11-15T14:10:42Z</time>
      </trkpt>
      <trkpt lat="44.77626" lon="3.88308">
        <ele>1151</ele>
        <time>2023-11-15T14:11:16Z</time>
      </trkpt>
      <trkpt lat="44.77613" lon="3.88281">
        <ele>1148</ele>
        <time>2023-11-15T14:11:47Z</time>
      </trkpt>
      <trkpt lat="44.7758" lon="3.88222">
        <ele>1140</ele>
        <time>2023-11-15T14:12:58Z</time>
      </trkpt>
      <trkpt lat="44.77552" lon="3.88189">
        <ele>1138</ele>
        <time>2023-11-15T14:13:47Z</time>
      </trkpt>
      <trkpt lat="44.77533" lon="3.88178">
        <ele>1138</ele>
        <time>2023-11-15T14:14:14Z</time>
      </trkpt>
      <trkpt lat="44.77511" lon="3.8817">
        <ele>1138</ele>
        <time>2023-11-15T14:14:44Z</time>
      </trkpt>
      <trkpt lat="44.77485" lon="3.88196">
        <ele>1143</ele>
        <time>2023-11-15T14:15:27Z</time>
      </trkpt>
      <trkpt lat="44.77386" lon="3.8827">
        <ele>1148</ele>
        <time>2023-11-15T14:17:57Z</time>
      </trkpt>
      <trkpt lat="44.77343" lon="3.88286">
        <ele>1149</ele>
        <time>2023-11-15T14:18:56Z</time>
      </trkpt>
    </trkseg>
  </trk>
</gpx>